sensor_id;sensor_type;location;lat;lon;timestamp;P1;durP1;ratioP1;P2;durP2;ratioP2
14088;SDS011;7120;52.890;6.040;2023-07-20T00:01:26;3.10;;;2.90;;
14088;SDS011;7120;52.890;6.040;2023-07-20T00:03:51;3.17;;;2.87;;
14088;SDS011;7120;52.890;6.040;2023-07-20T00:06:29;3.00;;;2.80;;
14088;SDS011;7120;52.890;6.040;2023-07-20T00:08:54;3.17;;;2.93;;
14088;SDS011;7120;52.890;6.040;2023-07-20T00:11:20;4.03;;;3.30;;
14088;SDS011;7120;52.890;6.040;2023-07-20T00:13:46;4.30;;;3.70;;
14088;SDS011;7120;52.890;6.040;2023-07-20T00:16:11;3.20;;;3.00;;
14088;SDS011;7120;52.890;6.040;2023-07-20T00:18:37;3.57;;;3.27;;
14088;SDS011;7120;52.890;6.040;2023-07-20T00:21:02;3.20;;;3.00;;
14088;SDS011;7120;52.890;6.040;2023-07-20T00:23:28;3.40;;;3.10;;
14088;SDS011;7120;52.890;6.040;2023-07-20T00:25:53;3.60;;;3.30;;
14088;SDS011;7120;52.890;6.040;2023-07-20T00:28:19;3.30;;;3.00;;
14088;SDS011;7120;52.890;6.040;2023-07-20T00:30:45;3.63;;;3.00;;
14088;SDS011;7120;52.890;6.040;2023-07-20T00:33:10;3.07;;;2.77;;
14088;SDS011;7120;52.890;6.040;2023-07-20T00:35:37;3.37;;;3.07;;
14088;SDS011;7120;52.890;6.040;2023-07-20T00:38:03;3.30;;;3.00;;
14088;SDS011;7120;52.890;6.040;2023-07-20T00:40:35;3.30;;;3.10;;
14088;SDS011;7120;52.890;6.040;2023-07-20T00:43:04;3.77;;;3.47;;
14088;SDS011;7120;52.890;6.040;2023-07-20T00:45:30;3.50;;;3.20;;
14088;SDS011;7120;52.890;6.040;2023-07-20T00:47:57;3.23;;;2.93;;
14088;SDS011;7120;52.890;6.040;2023-07-20T00:50:23;3.77;;;3.47;;
14088;SDS011;7120;52.890;6.040;2023-07-20T00:52:50;3.37;;;3.07;;
14088;SDS011;7120;52.890;6.040;2023-07-20T00:55:15;3.57;;;3.13;;
14088;SDS011;7120;52.890;6.040;2023-07-20T00:57:41;3.80;;;3.50;;
14088;SDS011;7120;52.890;6.040;2023-07-20T01:00:06;3.90;;;3.57;;
14088;SDS011;7120;52.890;6.040;2023-07-20T01:02:32;4.23;;;3.50;;
14088;SDS011;7120;52.890;6.040;2023-07-20T01:04:58;3.90;;;3.50;;
14088;SDS011;7120;52.890;6.040;2023-07-20T01:07:25;4.90;;;3.63;;
14088;SDS011;7120;52.890;6.040;2023-07-20T01:10:01;3.40;;;3.10;;
14088;SDS011;7120;52.890;6.040;2023-07-20T01:12:41;3.43;;;3.13;;
14088;SDS011;7120;52.890;6.040;2023-07-20T01:15:07;4.20;;;3.80;;
14088;SDS011;7120;52.890;6.040;2023-07-20T01:17:33;4.47;;;4.07;;
14088;SDS011;7120;52.890;6.040;2023-07-20T01:19:59;4.70;;;3.60;;
14088;SDS011;7120;52.890;6.040;2023-07-20T01:33:27;3.83;;;3.53;;
14088;SDS011;7120;52.890;6.040;2023-07-20T01:35:57;3.83;;;3.53;;
14088;SDS011;7120;52.890;6.040;2023-07-20T01:38:24;3.80;;;3.50;;
14088;SDS011;7120;52.890;6.040;2023-07-20T01:40:50;3.70;;;3.40;;
14088;SDS011;7120;52.890;6.040;2023-07-20T01:43:17;4.57;;;4.17;;
14088;SDS011;7120;52.890;6.040;2023-07-20T01:45:42;4.43;;;4.03;;
14088;SDS011;7120;52.890;6.040;2023-07-20T01:48:08;4.60;;;4.20;;
14088;SDS011;7120;52.890;6.040;2023-07-20T01:50:34;4.30;;;3.90;;
14088;SDS011;7120;52.890;6.040;2023-07-20T01:53:00;4.93;;;4.50;;
14088;SDS011;7120;52.890;6.040;2023-07-20T01:55:25;5.60;;;4.30;;
14088;SDS011;7120;52.890;6.040;2023-07-20T01:57:51;5.37;;;4.87;;
14088;SDS011;7120;52.890;6.040;2023-07-20T02:00:17;5.17;;;4.67;;
14088;SDS011;7120;52.890;6.040;2023-07-20T02:02:46;4.87;;;4.43;;
14088;SDS011;7120;52.890;6.040;2023-07-20T02:05:11;5.70;;;4.83;;
14088;SDS011;7120;52.890;6.040;2023-07-20T02:07:37;7.17;;;5.10;;
14088;SDS011;7120;52.890;6.040;2023-07-20T02:10:02;5.23;;;4.77;;
14088;SDS011;7120;52.890;6.040;2023-07-20T02:12:28;4.60;;;4.20;;
14088;SDS011;7120;52.890;6.040;2023-07-20T02:14:53;5.90;;;4.37;;
14088;SDS011;7120;52.890;6.040;2023-07-20T02:17:19;5.00;;;4.50;;
14088;SDS011;7120;52.890;6.040;2023-07-20T02:19:44;5.60;;;4.73;;
14088;SDS011;7120;52.890;6.040;2023-07-20T02:22:10;5.40;;;4.67;;
14088;SDS011;7120;52.890;6.040;2023-07-20T02:24:35;5.03;;;4.53;;
14088;SDS011;7120;52.890;6.040;2023-07-20T02:27:01;4.57;;;4.17;;
14088;SDS011;7120;52.890;6.040;2023-07-20T02:29:26;5.50;;;4.97;;
14088;SDS011;7120;52.890;6.040;2023-07-20T02:31:52;5.83;;;5.00;;
14088;SDS011;7120;52.890;6.040;2023-07-20T02:34:18;5.67;;;4.50;;
14088;SDS011;7120;52.890;6.040;2023-07-20T02:36:43;7.40;;;4.83;;
14088;SDS011;7120;52.890;6.040;2023-07-20T02:39:08;7.37;;;4.77;;
14088;SDS011;7120;52.890;6.040;2023-07-20T02:41:34;4.80;;;4.40;;
14088;SDS011;7120;52.890;6.040;2023-07-20T02:44:00;5.30;;;4.33;;
14088;SDS011;7120;52.890;6.040;2023-07-20T02:46:26;4.33;;;3.93;;
14088;SDS011;7120;52.890;6.040;2023-07-20T02:48:55;4.40;;;4.00;;
14088;SDS011;7120;52.890;6.040;2023-07-20T02:51:20;4.93;;;4.40;;
14088;SDS011;7120;52.890;6.040;2023-07-20T02:53:45;4.63;;;4.17;;
14088;SDS011;7120;52.890;6.040;2023-07-20T02:56:11;5.07;;;4.57;;
14088;SDS011;7120;52.890;6.040;2023-07-20T02:58:39;5.70;;;4.63;;
14088;SDS011;7120;52.890;6.040;2023-07-20T03:01:08;4.57;;;4.17;;
14088;SDS011;7120;52.890;6.040;2023-07-20T03:03:34;4.90;;;4.40;;
14088;SDS011;7120;52.890;6.040;2023-07-20T03:06:03;4.30;;;3.80;;
14088;SDS011;7120;52.890;6.040;2023-07-20T03:08:34;4.73;;;4.33;;
14088;SDS011;7120;52.890;6.040;2023-07-20T03:11:00;5.20;;;3.80;;
14088;SDS011;7120;52.890;6.040;2023-07-20T03:13:26;4.60;;;4.20;;
14088;SDS011;7120;52.890;6.040;2023-07-20T03:15:52;5.10;;;4.60;;
14088;SDS011;7120;52.890;6.040;2023-07-20T03:18:17;4.47;;;4.00;;
14088;SDS011;7120;52.890;6.040;2023-07-20T03:20:43;4.70;;;4.10;;
14088;SDS011;7120;52.890;6.040;2023-07-20T03:23:08;7.73;;;4.13;;
14088;SDS011;7120;52.890;6.040;2023-07-20T03:25:34;5.20;;;4.70;;
14088;SDS011;7120;52.890;6.040;2023-07-20T03:27:59;4.53;;;4.10;;
14088;SDS011;7120;52.890;6.040;2023-07-20T03:30:24;4.40;;;4.00;;
14088;SDS011;7120;52.890;6.040;2023-07-20T03:32:50;4.73;;;4.27;;
14088;SDS011;7120;52.890;6.040;2023-07-20T03:35:16;4.57;;;4.10;;
14088;SDS011;7120;52.890;6.040;2023-07-20T03:37:41;4.97;;;4.20;;
14088;SDS011;7120;52.890;6.040;2023-07-20T03:40:07;4.40;;;4.00;;
14088;SDS011;7120;52.890;6.040;2023-07-20T03:42:33;4.77;;;4.33;;
14088;SDS011;7120;52.890;6.040;2023-07-20T03:44:58;3.93;;;3.63;;
14088;SDS011;7120;52.890;6.040;2023-07-20T03:47:24;4.43;;;4.03;;
14088;SDS011;7120;52.890;6.040;2023-07-20T03:49:49;4.83;;;4.43;;
14088;SDS011;7120;52.890;6.040;2023-07-20T03:52:14;5.07;;;4.63;;
14088;SDS011;7120;52.890;6.040;2023-07-20T03:54:40;6.03;;;4.57;;
14088;SDS011;7120;52.890;6.040;2023-07-20T03:57:05;5.50;;;4.70;;
14088;SDS011;7120;52.890;6.040;2023-07-20T03:59:31;5.57;;;5.00;;
14088;SDS011;7120;52.890;6.040;2023-07-20T04:01:56;6.03;;;5.27;;
14088;SDS011;7120;52.890;6.040;2023-07-20T04:04:21;4.93;;;4.53;;
14088;SDS011;7120;52.890;6.040;2023-07-20T04:06:47;4.80;;;4.37;;
14088;SDS011;7120;52.890;6.040;2023-07-20T04:09:12;4.90;;;4.47;;
14088;SDS011;7120;52.890;6.040;2023-07-20T04:11:38;6.10;;;4.90;;
14088;SDS011;7120;52.890;6.040;2023-07-20T04:14:03;5.77;;;4.93;;
14088;SDS011;7120;52.890;6.040;2023-07-20T04:16:29;5.37;;;4.77;;
14088;SDS011;7120;52.890;6.040;2023-07-20T04:18:57;6.63;;;4.80;;
14088;SDS011;7120;52.890;6.040;2023-07-20T04:21:25;5.27;;;4.77;;
14088;SDS011;7120;52.890;6.040;2023-07-20T04:23:53;5.10;;;4.60;;
14088;SDS011;7120;52.890;6.040;2023-07-20T04:26:18;6.37;;;4.87;;
14088;SDS011;7120;52.890;6.040;2023-07-20T04:28:44;5.00;;;4.53;;
14088;SDS011;7120;52.890;6.040;2023-07-20T04:31:12;5.47;;;4.93;;
14088;SDS011;7120;52.890;6.040;2023-07-20T04:33:39;5.13;;;4.73;;
14088;SDS011;7120;52.890;6.040;2023-07-20T04:36:05;5.00;;;4.60;;
14088;SDS011;7120;52.890;6.040;2023-07-20T04:38:30;5.73;;;4.50;;
14088;SDS011;7120;52.890;6.040;2023-07-20T04:40:56;5.00;;;4.50;;
14088;SDS011;7120;52.890;6.040;2023-07-20T04:43:21;6.27;;;4.80;;
14088;SDS011;7120;52.890;6.040;2023-07-20T04:45:46;5.00;;;4.57;;
14088;SDS011;7120;52.890;6.040;2023-07-20T04:48:13;5.73;;;5.00;;
14088;SDS011;7120;52.890;6.040;2023-07-20T04:50:40;6.43;;;5.13;;
14088;SDS011;7120;52.890;6.040;2023-07-20T04:53:06;5.37;;;4.87;;
14088;SDS011;7120;52.890;6.040;2023-07-20T04:55:32;6.27;;;5.67;;
14088;SDS011;7120;52.890;6.040;2023-07-20T04:57:59;5.93;;;5.00;;
14088;SDS011;7120;52.890;6.040;2023-07-20T05:00:25;5.87;;;5.23;;
14088;SDS011;7120;52.890;6.040;2023-07-20T05:02:51;6.03;;;5.43;;
14088;SDS011;7120;52.890;6.040;2023-07-20T05:05:16;6.40;;;5.67;;
14088;SDS011;7120;52.890;6.040;2023-07-20T05:07:42;5.97;;;4.63;;
14088;SDS011;7120;52.890;6.040;2023-07-20T05:10:08;6.33;;;4.93;;
14088;SDS011;7120;52.890;6.040;2023-07-20T05:12:34;5.07;;;4.67;;
14088;SDS011;7120;52.890;6.040;2023-07-20T05:14:59;5.20;;;4.80;;
14088;SDS011;7120;52.890;6.040;2023-07-20T05:17:25;5.10;;;4.70;;
14088;SDS011;7120;52.890;6.040;2023-07-20T05:19:50;4.73;;;4.33;;
14088;SDS011;7120;52.890;6.040;2023-07-20T05:22:16;4.20;;;3.90;;
14088;SDS011;7120;52.890;6.040;2023-07-20T05:24:42;4.43;;;4.10;;
14088;SDS011;7120;52.890;6.040;2023-07-20T05:27:08;6.17;;;4.20;;
14088;SDS011;7120;52.890;6.040;2023-07-20T05:29:34;4.60;;;4.10;;
14088;SDS011;7120;52.890;6.040;2023-07-20T05:31:59;5.83;;;3.50;;
14088;SDS011;7120;52.890;6.040;2023-07-20T05:34:24;4.03;;;3.73;;
14088;SDS011;7120;52.890;6.040;2023-07-20T05:36:50;3.97;;;3.67;;
14088;SDS011;7120;52.890;6.040;2023-07-20T05:39:18;3.70;;;3.40;;
14088;SDS011;7120;52.890;6.040;2023-07-20T05:41:43;4.03;;;3.63;;
14088;SDS011;7120;52.890;6.040;2023-07-20T05:44:09;3.53;;;3.23;;
14088;SDS011;7120;52.890;6.040;2023-07-20T05:46:34;3.37;;;3.17;;
14088;SDS011;7120;52.890;6.040;2023-07-20T05:49:00;3.10;;;2.90;;
14088;SDS011;7120;52.890;6.040;2023-07-20T05:51:26;3.37;;;3.07;;
14088;SDS011;7120;52.890;6.040;2023-07-20T05:53:52;3.20;;;3.00;;
14088;SDS011;7120;52.890;6.040;2023-07-20T05:56:17;3.27;;;3.07;;
14088;SDS011;7120;52.890;6.040;2023-07-20T05:58:43;3.10;;;2.90;;
14088;SDS011;7120;52.890;6.040;2023-07-20T06:01:08;4.67;;;3.20;;
14088;SDS011;7120;52.890;6.040;2023-07-20T06:03:34;3.43;;;3.13;;
14088;SDS011;7120;52.890;6.040;2023-07-20T06:06:02;3.07;;;2.80;;
14088;SDS011;7120;52.890;6.040;2023-07-20T06:08:30;2.90;;;2.70;;
14088;SDS011;7120;52.890;6.040;2023-07-20T06:10:56;3.07;;;2.87;;
14088;SDS011;7120;52.890;6.040;2023-07-20T06:13:22;2.80;;;2.60;;
14088;SDS011;7120;52.890;6.040;2023-07-20T06:15:48;2.80;;;2.60;;
14088;SDS011;7120;52.890;6.040;2023-07-20T06:18:14;2.73;;;2.53;;
14088;SDS011;7120;52.890;6.040;2023-07-20T06:20:40;2.27;;;2.17;;
14088;SDS011;7120;52.890;6.040;2023-07-20T06:23:05;2.83;;;2.50;;
14088;SDS011;7120;52.890;6.040;2023-07-20T06:25:30;4.20;;;2.47;;
14088;SDS011;7120;52.890;6.040;2023-07-20T06:27:56;2.40;;;2.30;;
14088;SDS011;7120;52.890;6.040;2023-07-20T06:30:21;2.40;;;2.20;;
14088;SDS011;7120;52.890;6.040;2023-07-20T06:32:47;2.00;;;1.83;;
14088;SDS011;7120;52.890;6.040;2023-07-20T06:35:13;2.40;;;2.20;;
14088;SDS011;7120;52.890;6.040;2023-07-20T06:37:39;3.13;;;1.97;;
14088;SDS011;7120;52.890;6.040;2023-07-20T06:40:04;1.90;;;1.73;;
14088;SDS011;7120;52.890;6.040;2023-07-20T06:42:31;2.07;;;1.97;;
14088;SDS011;7120;52.890;6.040;2023-07-20T06:44:57;1.90;;;1.80;;
14088;SDS011;7120;52.890;6.040;2023-07-20T06:47:23;1.70;;;1.60;;
14088;SDS011;7120;52.890;6.040;2023-07-20T06:49:48;3.70;;;1.43;;
14088;SDS011;7120;52.890;6.040;2023-07-20T06:52:14;1.47;;;1.37;;
14088;SDS011;7120;52.890;6.040;2023-07-20T06:54:40;2.23;;;1.40;;
14088;SDS011;7120;52.890;6.040;2023-07-20T06:57:05;2.53;;;1.40;;
14088;SDS011;7120;52.890;6.040;2023-07-20T06:59:31;1.37;;;1.27;;
14088;SDS011;7120;52.890;6.040;2023-07-20T07:01:56;1.40;;;1.20;;
14088;SDS011;7120;52.890;6.040;2023-07-20T07:04:21;2.03;;;1.50;;
14088;SDS011;7120;52.890;6.040;2023-07-20T07:06:47;1.20;;;0.93;;
14088;SDS011;7120;52.890;6.040;2023-07-20T07:09:13;1.90;;;0.90;;
14088;SDS011;7120;52.890;6.040;2023-07-20T07:11:39;1.27;;;0.90;;
14088;SDS011;7120;52.890;6.040;2023-07-20T07:14:04;1.00;;;0.90;;
14088;SDS011;7120;52.890;6.040;2023-07-20T07:16:30;2.57;;;0.90;;
14088;SDS011;7120;52.890;6.040;2023-07-20T07:18:55;1.30;;;0.87;;
14088;SDS011;7120;52.890;6.040;2023-07-20T07:21:20;1.90;;;0.90;;
14088;SDS011;7120;52.890;6.040;2023-07-20T07:23:46;1.17;;;1.03;;
14088;SDS011;7120;52.890;6.040;2023-07-20T07:26:12;1.10;;;1.00;;
14088;SDS011;7120;52.890;6.040;2023-07-20T07:28:37;1.30;;;1.10;;
14088;SDS011;7120;52.890;6.040;2023-07-20T07:31:06;0.80;;;0.80;;
14088;SDS011;7120;52.890;6.040;2023-07-20T07:33:32;1.33;;;1.00;;
14088;SDS011;7120;52.890;6.040;2023-07-20T07:35:58;2.83;;;1.40;;
14088;SDS011;7120;52.890;6.040;2023-07-20T07:38:23;2.03;;;0.90;;
14088;SDS011;7120;52.890;6.040;2023-07-20T07:40:49;1.47;;;1.20;;
14088;SDS011;7120;52.890;6.040;2023-07-20T07:43:14;0.97;;;0.90;;
14088;SDS011;7120;52.890;6.040;2023-07-20T07:45:40;1.40;;;1.30;;
14088;SDS011;7120;52.890;6.040;2023-07-20T07:48:06;1.90;;;0.70;;
14088;SDS011;7120;52.890;6.040;2023-07-20T07:50:32;2.17;;;1.00;;
14088;SDS011;7120;52.890;6.040;2023-07-20T07:52:58;1.20;;;1.00;;
14088;SDS011;7120;52.890;6.040;2023-07-20T07:55:24;0.80;;;0.80;;
14088;SDS011;7120;52.890;6.040;2023-07-20T07:57:51;0.87;;;0.70;;
14088;SDS011;7120;52.890;6.040;2023-07-20T08:00:17;0.80;;;0.80;;
14088;SDS011;7120;52.890;6.040;2023-07-20T08:02:44;0.83;;;0.70;;
14088;SDS011;7120;52.890;6.040;2023-07-20T08:05:11;1.13;;;0.80;;
14088;SDS011;7120;52.890;6.040;2023-07-20T08:07:38;1.10;;;0.90;;
14088;SDS011;7120;52.890;6.040;2023-07-20T08:10:04;0.80;;;0.80;;
14088;SDS011;7120;52.890;6.040;2023-07-20T08:12:30;0.93;;;0.73;;
14088;SDS011;7120;52.890;6.040;2023-07-20T08:14:56;0.80;;;0.70;;
14088;SDS011;7120;52.890;6.040;2023-07-20T08:17:22;0.90;;;0.80;;
14088;SDS011;7120;52.890;6.040;2023-07-20T08:19:48;1.10;;;0.90;;
14088;SDS011;7120;52.890;6.040;2023-07-20T08:22:13;1.40;;;0.80;;
14088;SDS011;7120;52.890;6.040;2023-07-20T08:24:39;0.87;;;0.87;;
14088;SDS011;7120;52.890;6.040;2023-07-20T08:27:06;0.80;;;0.80;;
14088;SDS011;7120;52.890;6.040;2023-07-20T08:29:32;1.13;;;0.90;;
14088;SDS011;7120;52.890;6.040;2023-07-20T08:31:58;0.87;;;0.70;;
14088;SDS011;7120;52.890;6.040;2023-07-20T08:34:23;1.10;;;0.60;;
14088;SDS011;7120;52.890;6.040;2023-07-20T08:36:49;1.20;;;0.90;;
14088;SDS011;7120;52.890;6.040;2023-07-20T08:39:14;0.80;;;0.80;;
14088;SDS011;7120;52.890;6.040;2023-07-20T08:41:41;0.87;;;0.60;;
14088;SDS011;7120;52.890;6.040;2023-07-20T08:44:08;0.60;;;0.60;;
14088;SDS011;7120;52.890;6.040;2023-07-20T08:46:34;1.20;;;1.10;;
14088;SDS011;7120;52.890;6.040;2023-07-20T08:49:03;0.80;;;0.70;;
14088;SDS011;7120;52.890;6.040;2023-07-20T08:51:29;0.70;;;0.60;;
14088;SDS011;7120;52.890;6.040;2023-07-20T08:53:56;0.60;;;0.60;;
14088;SDS011;7120;52.890;6.040;2023-07-20T08:56:22;0.83;;;0.70;;
14088;SDS011;7120;52.890;6.040;2023-07-20T08:58:51;0.97;;;0.80;;
14088;SDS011;7120;52.890;6.040;2023-07-20T09:01:19;1.53;;;0.80;;
14088;SDS011;7120;52.890;6.040;2023-07-20T09:03:45;1.47;;;0.90;;
14088;SDS011;7120;52.890;6.040;2023-07-20T09:06:12;0.60;;;0.60;;
14088;SDS011;7120;52.890;6.040;2023-07-20T09:08:39;0.60;;;0.60;;
14088;SDS011;7120;52.890;6.040;2023-07-20T09:11:10;0.63;;;0.60;;
14088;SDS011;7120;52.890;6.040;2023-07-20T09:13:37;1.97;;;0.70;;
14088;SDS011;7120;52.890;6.040;2023-07-20T09:16:03;0.60;;;0.57;;
14088;SDS011;7120;52.890;6.040;2023-07-20T09:18:30;0.80;;;0.70;;
14088;SDS011;7120;52.890;6.040;2023-07-20T09:20:58;0.60;;;0.60;;
14088;SDS011;7120;52.890;6.040;2023-07-20T09:23:32;0.80;;;0.80;;
14088;SDS011;7120;52.890;6.040;2023-07-20T09:25:58;0.75;;;0.70;;
14088;SDS011;7120;52.890;6.040;2023-07-20T09:28:24;0.70;;;0.70;;
14088;SDS011;7120;52.890;6.040;2023-07-20T09:30:50;1.38;;;0.85;;
14088;SDS011;7120;52.890;6.040;2023-07-20T09:33:19;0.60;;;0.60;;
14088;SDS011;7120;52.890;6.040;2023-07-20T09:35:46;0.80;;;0.80;;
14088;SDS011;7120;52.890;6.040;2023-07-20T09:38:12;0.77;;;0.77;;
14088;SDS011;7120;52.890;6.040;2023-07-20T09:40:40;1.40;;;0.88;;
14088;SDS011;7120;52.890;6.040;2023-07-20T09:43:10;1.55;;;0.90;;
14088;SDS011;7120;52.890;6.040;2023-07-20T09:45:40;0.75;;;0.70;;
14088;SDS011;7120;52.890;6.040;2023-07-20T09:48:07;0.70;;;0.60;;
14088;SDS011;7120;52.890;6.040;2023-07-20T09:50:34;1.10;;;0.85;;
14088;SDS011;7120;52.890;6.040;2023-07-20T09:53:05;0.70;;;0.70;;
14088;SDS011;7120;52.890;6.040;2023-07-20T09:55:32;0.60;;;0.60;;
14088;SDS011;7120;52.890;6.040;2023-07-20T09:58:00;0.77;;;0.77;;
14088;SDS011;7120;52.890;6.040;2023-07-20T10:00:25;1.00;;;0.90;;
14088;SDS011;7120;52.890;6.040;2023-07-20T10:02:52;0.98;;;0.70;;
14088;SDS011;7120;52.890;6.040;2023-07-20T10:05:18;0.90;;;0.90;;
14088;SDS011;7120;52.890;6.040;2023-07-20T10:07:48;1.20;;;0.77;;
14088;SDS011;7120;52.890;6.040;2023-07-20T10:10:18;1.05;;;0.85;;
14088;SDS011;7120;52.890;6.040;2023-07-20T10:12:47;1.25;;;0.80;;
14088;SDS011;7120;52.890;6.040;2023-07-20T10:15:21;0.70;;;0.70;;
14088;SDS011;7120;52.890;6.040;2023-07-20T10:18:12;1.02;;;0.60;;
14088;SDS011;7120;52.890;6.040;2023-07-20T10:20:42;0.73;;;0.73;;
14088;SDS011;7120;52.890;6.040;2023-07-20T10:23:09;1.15;;;0.80;;
14088;SDS011;7120;52.890;6.040;2023-07-20T10:25:37;0.93;;;0.90;;
14088;SDS011;7120;52.890;6.040;2023-07-20T10:28:05;1.15;;;0.80;;
14088;SDS011;7120;52.890;6.040;2023-07-20T10:30:34;0.93;;;0.90;;
14088;SDS011;7120;52.890;6.040;2023-07-20T10:33:01;1.00;;;0.90;;
14088;SDS011;7120;52.890;6.040;2023-07-20T10:35:31;0.82;;;0.73;;
14088;SDS011;7120;52.890;6.040;2023-07-20T10:38:16;1.10;;;0.85;;
14088;SDS011;7120;52.890;6.040;2023-07-20T10:40:41;0.73;;;0.70;;
14088;SDS011;7120;52.890;6.040;2023-07-20T10:43:08;0.75;;;0.60;;
14088;SDS011;7120;52.890;6.040;2023-07-20T10:45:36;1.60;;;0.73;;
14088;SDS011;7120;52.890;6.040;2023-07-20T10:48:12;0.70;;;0.70;;
14088;SDS011;7120;52.890;6.040;2023-07-20T10:51:12;0.98;;;0.70;;
14088;SDS011;7120;52.890;6.040;2023-07-20T10:53:40;0.80;;;0.80;;
14088;SDS011;7120;52.890;6.040;2023-07-20T10:56:12;0.85;;;0.80;;
14088;SDS011;7120;52.890;6.040;2023-07-20T10:58:42;1.35;;;0.95;;
14088;SDS011;7120;52.890;6.040;2023-07-20T11:01:08;0.70;;;0.70;;
14088;SDS011;7120;52.890;6.040;2023-07-20T11:03:34;1.05;;;0.90;;
14088;SDS011;7120;52.890;6.040;2023-07-20T11:08:54;2.67;;;0.85;;
14088;SDS011;7120;52.890;6.040;2023-07-20T11:11:35;0.60;;;0.60;;
14088;SDS011;7120;52.890;6.040;2023-07-20T11:14:03;0.75;;;0.75;;
14088;SDS011;7120;52.890;6.040;2023-07-20T11:16:33;0.63;;;0.63;;
14088;SDS011;7120;52.890;6.040;2023-07-20T11:19:22;0.73;;;0.73;;
14088;SDS011;7120;52.890;6.040;2023-07-20T11:21:53;0.70;;;0.70;;
14088;SDS011;7120;52.890;6.040;2023-07-20T11:24:20;1.35;;;0.82;;
14088;SDS011;7120;52.890;6.040;2023-07-20T11:29:13;1.15;;;1.05;;
14088;SDS011;7120;52.890;6.040;2023-07-20T11:31:41;0.90;;;0.90;;
14088;SDS011;7120;52.890;6.040;2023-07-20T11:34:10;1.30;;;0.80;;
14088;SDS011;7120;52.890;6.040;2023-07-20T11:36:38;0.98;;;0.60;;
14088;SDS011;7120;52.890;6.040;2023-07-20T11:39:06;1.27;;;0.80;;
14088;SDS011;7120;52.890;6.040;2023-07-20T11:41:34;0.80;;;0.80;;
14088;SDS011;7120;52.890;6.040;2023-07-20T11:43:59;2.08;;;0.90;;
14088;SDS011;7120;52.890;6.040;2023-07-20T11:46:27;2.13;;;0.80;;
14088;SDS011;7120;52.890;6.040;2023-07-20T11:48:57;1.13;;;0.90;;
14088;SDS011;7120;52.890;6.040;2023-07-20T11:51:25;1.88;;;0.90;;
14088;SDS011;7120;52.890;6.040;2023-07-20T11:53:52;0.98;;;0.90;;
14088;SDS011;7120;52.890;6.040;2023-07-20T11:56:19;1.48;;;0.85;;
14088;SDS011;7120;52.890;6.040;2023-07-20T11:58:45;0.88;;;0.73;;
14088;SDS011;7120;52.890;6.040;2023-07-20T12:01:14;0.52;;;0.52;;
14088;SDS011;7120;52.890;6.040;2023-07-20T12:03:42;1.27;;;0.65;;
14088;SDS011;7120;52.890;6.040;2023-07-20T12:06:09;0.80;;;0.80;;
14088;SDS011;7120;52.890;6.040;2023-07-20T12:08:39;0.73;;;0.73;;
14088;SDS011;7120;52.890;6.040;2023-07-20T12:11:07;0.95;;;0.90;;
14088;SDS011;7120;52.890;6.040;2023-07-20T12:13:41;1.05;;;0.90;;
14088;SDS011;7120;52.890;6.040;2023-07-20T12:16:09;0.70;;;0.70;;
14088;SDS011;7120;52.890;6.040;2023-07-20T12:18:39;1.05;;;0.70;;
14088;SDS011;7120;52.890;6.040;2023-07-20T12:21:05;0.63;;;0.63;;
14088;SDS011;7120;52.890;6.040;2023-07-20T12:23:36;0.65;;;0.55;;
14088;SDS011;7120;52.890;6.040;2023-07-20T12:26:03;1.92;;;0.77;;
14088;SDS011;7120;52.890;6.040;2023-07-20T12:28:32;0.93;;;0.80;;
14088;SDS011;7120;52.890;6.040;2023-07-20T12:30:58;0.75;;;0.75;;
14088;SDS011;7120;52.890;6.040;2023-07-20T12:33:23;1.05;;;0.90;;
14088;SDS011;7120;52.890;6.040;2023-07-20T12:35:49;1.00;;;0.90;;
14088;SDS011;7120;52.890;6.040;2023-07-20T12:38:15;1.02;;;0.70;;
14088;SDS011;7120;52.890;6.040;2023-07-20T12:40:42;0.50;;;0.50;;
14088;SDS011;7120;52.890;6.040;2023-07-20T12:43:08;0.60;;;0.60;;
14088;SDS011;7120;52.890;6.040;2023-07-20T12:45:34;0.80;;;0.80;;
14088;SDS011;7120;52.890;6.040;2023-07-20T12:48:00;1.02;;;0.70;;
14088;SDS011;7120;52.890;6.040;2023-07-20T12:50:26;0.50;;;0.40;;
14088;SDS011;7120;52.890;6.040;2023-07-20T12:52:52;0.50;;;0.50;;
14088;SDS011;7120;52.890;6.040;2023-07-20T12:55:17;0.50;;;0.50;;
14088;SDS011;7120;52.890;6.040;2023-07-20T12:57:43;0.60;;;0.60;;
14088;SDS011;7120;52.890;6.040;2023-07-20T13:00:09;0.50;;;0.50;;
14088;SDS011;7120;52.890;6.040;2023-07-20T13:02:35;0.73;;;0.70;;
14088;SDS011;7120;52.890;6.040;2023-07-20T13:05:01;0.85;;;0.73;;
14088;SDS011;7120;52.890;6.040;2023-07-20T13:07:34;0.70;;;0.70;;
14088;SDS011;7120;52.890;6.040;2023-07-20T13:10:01;0.93;;;0.82;;
14088;SDS011;7120;52.890;6.040;2023-07-20T13:12:29;0.70;;;0.70;;
14088;SDS011;7120;52.890;6.040;2023-07-20T13:14:56;3.05;;;0.90;;
14088;SDS011;7120;52.890;6.040;2023-07-20T13:17:22;0.77;;;0.70;;
14088;SDS011;7120;52.890;6.040;2023-07-20T13:19:48;1.02;;;0.90;;
14088;SDS011;7120;52.890;6.040;2023-07-20T13:22:13;0.93;;;0.80;;
14088;SDS011;7120;52.890;6.040;2023-07-20T13:24:39;0.98;;;0.60;;
14088;SDS011;7120;52.890;6.040;2023-07-20T13:27:05;0.80;;;0.80;;
14088;SDS011;7120;52.890;6.040;2023-07-20T13:29:31;2.67;;;2.22;;
14088;SDS011;7120;52.890;6.040;2023-07-20T13:31:57;0.60;;;0.60;;
14088;SDS011;7120;52.890;6.040;2023-07-20T13:34:23;0.75;;;0.60;;
14088;SDS011;7120;52.890;6.040;2023-07-20T13:36:49;0.60;;;0.60;;
14088;SDS011;7120;52.890;6.040;2023-07-20T13:39:14;0.88;;;0.70;;
14088;SDS011;7120;52.890;6.040;2023-07-20T13:41:40;0.85;;;0.60;;
14088;SDS011;7120;52.890;6.040;2023-07-20T13:44:07;0.60;;;0.60;;
14088;SDS011;7120;52.890;6.040;2023-07-20T13:46:33;0.70;;;0.52;;
14088;SDS011;7120;52.890;6.040;2023-07-20T13:48:59;0.60;;;0.60;;
14088;SDS011;7120;52.890;6.040;2023-07-20T13:51:25;2.20;;;0.80;;
14088;SDS011;7120;52.890;6.040;2023-07-20T13:53:51;1.20;;;0.60;;
14088;SDS011;7120;52.890;6.040;2023-07-20T13:56:17;0.57;;;0.57;;
14088;SDS011;7120;52.890;6.040;2023-07-20T13:58:43;0.70;;;0.70;;
14088;SDS011;7120;52.890;6.040;2023-07-20T14:01:09;0.60;;;0.50;;
14088;SDS011;7120;52.890;6.040;2023-07-20T14:03:34;0.80;;;0.80;;
14088;SDS011;7120;52.890;6.040;2023-07-20T14:06:00;1.90;;;1.40;;
14088;SDS011;7120;52.890;6.040;2023-07-20T14:08:26;1.17;;;1.00;;
14088;SDS011;7120;52.890;6.040;2023-07-20T14:10:55;1.38;;;0.93;;
14088;SDS011;7120;52.890;6.040;2023-07-20T14:13:20;1.10;;;0.60;;
14088;SDS011;7120;52.890;6.040;2023-07-20T14:15:46;1.42;;;1.00;;
14088;SDS011;7120;52.890;6.040;2023-07-20T14:18:12;0.70;;;0.70;;
14088;SDS011;7120;52.890;6.040;2023-07-20T14:20:38;0.70;;;0.70;;
14088;SDS011;7120;52.890;6.040;2023-07-20T14:23:04;0.88;;;0.70;;
14088;SDS011;7120;52.890;6.040;2023-07-20T14:25:30;0.65;;;0.65;;
14088;SDS011;7120;52.890;6.040;2023-07-20T14:27:57;1.43;;;0.70;;
14088;SDS011;7120;52.890;6.040;2023-07-20T14:30:23;1.60;;;0.77;;
14088;SDS011;7120;52.890;6.040;2023-07-20T14:32:49;0.77;;;0.60;;
14088;SDS011;7120;52.890;6.040;2023-07-20T14:35:15;0.83;;;0.80;;
14088;SDS011;7120;52.890;6.040;2023-07-20T14:37:41;0.90;;;0.70;;
14088;SDS011;7120;52.890;6.040;2023-07-20T14:40:07;0.80;;;0.80;;
14088;SDS011;7120;52.890;6.040;2023-07-20T14:42:33;1.03;;;0.80;;
14088;SDS011;7120;52.890;6.040;2023-07-20T14:44:59;0.70;;;0.70;;
14088;SDS011;7120;52.890;6.040;2023-07-20T14:47:25;1.10;;;0.67;;
14088;SDS011;7120;52.890;6.040;2023-07-20T14:49:50;0.87;;;0.70;;
14088;SDS011;7120;52.890;6.040;2023-07-20T14:52:16;1.00;;;0.90;;
14088;SDS011;7120;52.890;6.040;2023-07-20T14:54:42;1.17;;;0.90;;
14088;SDS011;7120;52.890;6.040;2023-07-20T14:57:08;1.30;;;0.70;;
14088;SDS011;7120;52.890;6.040;2023-07-20T14:59:39;1.07;;;0.90;;
14088;SDS011;7120;52.890;6.040;2023-07-20T15:02:06;0.97;;;0.87;;
14088;SDS011;7120;52.890;6.040;2023-07-20T15:04:33;1.40;;;0.83;;
14088;SDS011;7120;52.890;6.040;2023-07-20T15:06:59;1.00;;;0.90;;
14088;SDS011;7120;52.890;6.040;2023-07-20T15:09:24;2.03;;;1.20;;
14088;SDS011;7120;52.890;6.040;2023-07-20T15:11:50;0.77;;;0.77;;
14088;SDS011;7120;52.890;6.040;2023-07-20T15:14:16;1.27;;;0.80;;